Aviation Digital Data Service (ADDS)

Output produced by METARs form (1132 UTC 19 June 2019)
found at http://www.aviationweather.gov/metar/data/
 
KRAP 191123Z 1912/2012 35010KT P6SM BKN150 
     FM191700 33018G26KT P6SM SCT100 
     FM200300 34015KT P6SM VCTS BKN060CB
       
KRBG 190530Z 1906/2006 VRB03KT P6SM SKC 
     FM192000 01011G18KT P6SM SKC 
     FM200400 VRB03KT P6SM SKC
       
KRBL 191131Z 1912/2012 33006KT P6SM SKC 
     FM191700 35014G20KT P6SM SKC 
     FM200000 33008KT P6SM SKC
       
TAF KRCA 191100Z 1911/2017 VRB06KT 9999 SCT065 QNH2979INS 
     BECMG 1922/1923 33015G20KT 9000 -SHRA BKN040 510001 QNH2971INS 
     TEMPO 2000/2008 32020G30KT 4800 -TSRA FEW002 BKN030CB 
     BECMG 2008/2009 32009KT 9000 -RA BKN030 QNH2964INS 
     BECMG 2011/2012 30006KT 9999 NSW FEW230 QNH2972INS TX25/1920Z TN11/2011Z
       
KRDD 191131Z 1912/2012 35008KT P6SM SKC 
     FM191700 36013G19KT P6SM SKC 
     FM192300 34007KT P6SM SKC
       
KRDG 190850Z 1909/2006 VRB03KT P6SM BKN080 
     TEMPO 1909/1910 4SM BR 
     FM191000 VRB02KT 4SM BR OVC010 
     FM191300 15005KT P6SM BKN030 
     FM191800 16005KT 5SM SHRA BR OVC030
       
KRDM 191120Z 1912/2012 30010KT P6SM SKC 
     FM191800 31012G22KT P6SM BKN200 
     FM200600 31010KT P6SM BKN100
       
TAF KRDR 191000Z 1910/2016 VRB06KT 9999 FEW055 SCT100 QNH2979INS 
     BECMG 1923/1924 12006KT 9999 SCT045 QNH2975INS 
     BECMG 2011/2012 13004KT 8000 BR FEW060 SCT070 OVC100 QNH2973INS TX23/1920Z
TN12/1910Z
       
KRDU 190854Z 1909/2006 VRB02KT P6SM VCSH BKN015 
     TEMPO 1909/1912 6SM BR BKN005 OVC012 
     FM191300 19006KT P6SM BKN025 
     FM191430 24008KT P6SM OVC100
       
KRIC 191128Z 1912/2012 19005KT P6SM BKN100 
     FM191600 20008KT P6SM VCSH BKN050 
     FM200200 20006KT P6SM BKN150
       
KRIL 191120Z 1912/2012 00000KT P6SM SCT120 
     FM192000 26012G20KT P6SM FEW080 FEW180 
     FM200300 23007KT P6SM FEW100 FEW250
       
TAF AMD KRIV 190950Z 1909/2010 30005KT 9999 SKC QNH2995INS 
     BECMG 1911/1912 VRB04KT 6000 BR OVC005 QNH2996INS 
     BECMG 1914/1915 VRB04KT 9000 BR OVC008 QNH2992INS 
     BECMG 1915/1916 30006KT 9999 NSW FEW012 QNH2993INS 
     BECMG 1919/1920 30009KT 9999 SKC QNH2989INS 
     TEMPO 1921/2001 30012G18KT 
     BECMG 2009/2010 VRB04KT 9999 OVC008 QNH2996INS TX29/1922Z TN13/1912Z
       
KRIW 191126Z 1912/2012 26005KT P6SM SCT100 
     FM192000 27015G25KT P6SM SCT080 
     FM192200 28025G35KT P6SM SCT080 
     FM200400 31015G22KT P6SM FEW080 SCT250 
     FM200700 32008KT P6SM SCT250
       
KRKD 191120Z 1912/2012 VRB03KT 1/2SM FG OVC003 
     FM191400 15005KT P6SM BKN003 
     FM192200 00000KT 1/4SM FG VV001
       
KRKS 191126Z 1912/2012 28008KT P6SM SCT060 BKN100 
     FM191600 26016G22KT P6SM SCT200 
     FM192100 27030G40KT P6SM SCT200 
     FM200300 27015G23KT P6SM SCT250 
     FM200700 25009KT P6SM FEW250
       
KRME 191120Z 1912/2012 VRB03KT P6SM BKN050 
     FM200800 VRB04KT 4SM BR BKN018
       
KRNO 191120Z 1912/2012 VRB04KT P6SM SKC 
     FM192000 31015G25KT P6SM SKC 
     FM200400 32011KT P6SM SKC
       
KROA 191122Z 1912/2012 27003KT P6SM FEW012 
     TEMPO 1912/1916 BKN012 
     FM191700 20005KT P6SM VCTS SCT035CB BKN060 
     TEMPO 1919/1921 2SM TSRA BR BKN035CB 
     FM200000 VRB03KT P6SM BKN090
       
KROC 191120Z 1912/2012 VRB03KT P6SM SCT150 
     FM191500 VRB03KT P6SM FEW035 BKN100 
     FM192300 03007KT P6SM SCT080 
     FM200300 VRB03KT P6SM SCT045 
     FM200800 VRB03KT P6SM OVC045
       
KROG 191120Z 1912/2012 11006KT P6SM VCSH BKN012 
     TEMPO 1912/1915 BKN025 
     FM191500 24010KT P6SM BKN035 
     FM200000 VRB03KT P6SM BKN250
       
KROW 191120Z 1912/2012 36007KT P6SM FEW150 
     FM191900 27012G18KT P6SM SCT100 
     FM200200 25008KT P6SM SCT150
       
KRSL 191129Z 1912/2012 34007KT P6SM SCT006 OVC015 
     TEMPO 1912/1914 OVC006 
     FM191700 35008KT P6SM BKN050 
     FM192000 32007KT P6SM SCT050 
     FM200000 35005KT P6SM FEW250 
     FM200200 08005KT P6SM FEW250 
     FM200500 14005KT P6SM SKC
       
KRST 191120Z 1912/2012 05005KT P6SM SCT250 
     FM191800 04006KT P6SM BKN060 
     FM200000 07004KT P6SM BKN200
       
KRSW 190914Z 1909/2006 VRB02KT P6SM FEW015 SCT030 SCT250 
     FM191000 18005KT P6SM VCTS SCT015CB SCT250 
     FM191500 23011KT P6SM VCTS SCT030CB BKN050 BKN250 
     FM200100 VRB03KT P6SM SCT025 SCT150
       
KRUT 191120Z 1912/2012 VRB03KT P6SM BKN045 
     FM191600 15005KT P6SM VCSH BKN080 
     FM200500 VRB04KT P6SM VCSH BKN030 
     FM200700 VRB03KT 6SM BR VCSH BKN015
       
KRVS 191120Z 1912/2012 00000KT P6SM SCT090 BKN150 
     TEMPO 1912/1915 BKN025 
     FM191500 31006KT P6SM BKN035 
     FM200000 VRB03KT P6SM BKN250
       
KRWI 190540Z 1906/2006 VRB02KT P6SM BKN025 BKN250 
     FM190800 18003KT P6SM BKN015 
     TEMPO 1908/1912 SCT015 
     FM191400 23009KT P6SM BKN035 
     PROB30 1918/1922 23012G20KT P6SM -TSRA BKN035CB
       
KRWL 191128Z 1912/2012 00000KT P6SM SKC 
     FM191600 25018G30KT P6SM SCT100 BKN250 
     FM192100 25030G45KT P6SM SCT100 SCT250 
     FM200700 26010G20KT P6SM FEW250
       
KRYY 191122Z 1912/2012 24003KT 6SM BR VCSH OVC012 
     FM191400 26005KT P6SM VCSH BKN025 
     FM191800 25006KT P6SM VCSH BKN035 BKN100 
     FM192000 25008KT P6SM VCSH SCT040 
     PROB30 1921/1924 3SM TSRA BKN035CB 
     FM200800 24004KT P6SM BKN020 
     FM201000 24005KT P6SM BKN008